sensor_id;sensor_type;location;lat;lon;timestamp;P1;durP1;ratioP1;P2;durP2;ratioP2
12224;SDS011;6175;50.956;11.064;2023-02-26T00:00:27;2.93;;;2.63;;
12224;SDS011;6175;50.956;11.064;2023-02-26T00:02:54;4.23;;;2.70;;
12224;SDS011;6175;50.956;11.064;2023-02-26T00:05:22;2.23;;;1.83;;
12224;SDS011;6175;50.956;11.064;2023-02-26T00:07:50;3.00;;;1.70;;
12224;SDS011;6175;50.956;11.064;2023-02-26T00:10:18;3.63;;;2.17;;
12224;SDS011;6175;50.956;11.064;2023-02-26T00:12:45;3.27;;;1.57;;
12224;SDS011;6175;50.956;11.064;2023-02-26T00:15:13;2.20;;;1.67;;
12224;SDS011;6175;50.956;11.064;2023-02-26T00:17:43;4.30;;;1.80;;
12224;SDS011;6175;50.956;11.064;2023-02-26T00:20:14;2.53;;;1.43;;
12224;SDS011;6175;50.956;11.064;2023-02-26T00:22:42;3.43;;;1.80;;
12224;SDS011;6175;50.956;11.064;2023-02-26T00:25:11;3.67;;;1.97;;
12224;SDS011;6175;50.956;11.064;2023-02-26T00:27:39;4.87;;;2.63;;
12224;SDS011;6175;50.956;11.064;2023-02-26T00:30:07;4.33;;;2.80;;
12224;SDS011;6175;50.956;11.064;2023-02-26T00:32:35;3.90;;;3.50;;
12224;SDS011;6175;50.956;11.064;2023-02-26T00:35:03;2.97;;;2.50;;
12224;SDS011;6175;50.956;11.064;2023-02-26T00:37:35;4.07;;;2.07;;
12224;SDS011;6175;50.956;11.064;2023-02-26T00:40:17;3.00;;;2.10;;
12224;SDS011;6175;50.956;11.064;2023-02-26T00:42:48;3.23;;;2.00;;
12224;SDS011;6175;50.956;11.064;2023-02-26T00:45:16;5.03;;;2.50;;
12224;SDS011;6175;50.956;11.064;2023-02-26T00:47:44;3.43;;;2.40;;
12224;SDS011;6175;50.956;11.064;2023-02-26T00:50:17;3.30;;;1.80;;
12224;SDS011;6175;50.956;11.064;2023-02-26T00:52:49;3.20;;;2.27;;
12224;SDS011;6175;50.956;11.064;2023-02-26T00:55:24;2.77;;;1.90;;
12224;SDS011;6175;50.956;11.064;2023-02-26T00:57:51;2.30;;;1.47;;
12224;SDS011;6175;50.956;11.064;2023-02-26T01:00:18;2.13;;;1.70;;
12224;SDS011;6175;50.956;11.064;2023-02-26T01:02:46;4.30;;;2.07;;
12224;SDS011;6175;50.956;11.064;2023-02-26T01:05:14;3.10;;;2.00;;
12224;SDS011;6175;50.956;11.064;2023-02-26T01:07:42;2.77;;;1.70;;
12224;SDS011;6175;50.956;11.064;2023-02-26T01:10:14;4.53;;;1.70;;
12224;SDS011;6175;50.956;11.064;2023-02-26T01:12:43;3.50;;;1.80;;
12224;SDS011;6175;50.956;11.064;2023-02-26T01:15:11;2.63;;;1.80;;
12224;SDS011;6175;50.956;11.064;2023-02-26T01:17:39;3.03;;;1.80;;
12224;SDS011;6175;50.956;11.064;2023-02-26T01:20:13;3.03;;;1.83;;
12224;SDS011;6175;50.956;11.064;2023-02-26T01:22:43;4.67;;;1.70;;
12224;SDS011;6175;50.956;11.064;2023-02-26T01:25:17;3.47;;;1.77;;
12224;SDS011;6175;50.956;11.064;2023-02-26T01:27:50;2.20;;;1.73;;
12224;SDS011;6175;50.956;11.064;2023-02-26T01:30:18;3.97;;;1.63;;
12224;SDS011;6175;50.956;11.064;2023-02-26T01:32:47;4.10;;;1.80;;
12224;SDS011;6175;50.956;11.064;2023-02-26T01:35:20;3.53;;;2.00;;
12224;SDS011;6175;50.956;11.064;2023-02-26T01:38:00;3.13;;;1.60;;
12224;SDS011;6175;50.956;11.064;2023-02-26T01:40:33;2.30;;;1.50;;
12224;SDS011;6175;50.956;11.064;2023-02-26T01:43:13;4.30;;;1.63;;
12224;SDS011;6175;50.956;11.064;2023-02-26T01:45:51;4.00;;;1.80;;
12224;SDS011;6175;50.956;11.064;2023-02-26T01:48:28;3.70;;;2.10;;
12224;SDS011;6175;50.956;11.064;2023-02-26T01:51:01;3.83;;;1.90;;
12224;SDS011;6175;50.956;11.064;2023-02-26T01:53:28;2.07;;;1.50;;
12224;SDS011;6175;50.956;11.064;2023-02-26T01:55:56;2.53;;;1.50;;
12224;SDS011;6175;50.956;11.064;2023-02-26T01:58:29;2.87;;;1.60;;
12224;SDS011;6175;50.956;11.064;2023-02-26T02:00:59;2.80;;;1.70;;
12224;SDS011;6175;50.956;11.064;2023-02-26T02:03:27;2.40;;;1.67;;
12224;SDS011;6175;50.956;11.064;2023-02-26T02:05:57;3.37;;;1.60;;
12224;SDS011;6175;50.956;11.064;2023-02-26T02:08:29;3.83;;;1.53;;
12224;SDS011;6175;50.956;11.064;2023-02-26T02:10:59;4.20;;;1.60;;
12224;SDS011;6175;50.956;11.064;2023-02-26T02:13:34;3.47;;;1.70;;
12224;SDS011;6175;50.956;11.064;2023-02-26T02:16:10;3.37;;;1.90;;
12224;SDS011;6175;50.956;11.064;2023-02-26T02:18:46;3.17;;;1.50;;
12224;SDS011;6175;50.956;11.064;2023-02-26T02:21:27;3.47;;;1.70;;
12224;SDS011;6175;50.956;11.064;2023-02-26T02:24:07;2.10;;;1.53;;
12224;SDS011;6175;50.956;11.064;2023-02-26T02:26:48;4.90;;;2.17;;
12224;SDS011;6175;50.956;11.064;2023-02-26T02:32:32;2.77;;;1.77;;
12224;SDS011;6175;50.956;11.064;2023-02-26T02:35:04;1.70;;;1.60;;
12224;SDS011;6175;50.956;11.064;2023-02-26T02:37:38;3.00;;;1.93;;
12224;SDS011;6175;50.956;11.064;2023-02-26T02:40:10;1.90;;;1.80;;
12224;SDS011;6175;50.956;11.064;2023-02-26T02:42:41;2.57;;;1.60;;
12224;SDS011;6175;50.956;11.064;2023-02-26T02:45:12;4.07;;;1.70;;
12224;SDS011;6175;50.956;11.064;2023-02-26T02:47:46;1.50;;;1.40;;
12224;SDS011;6175;50.956;11.064;2023-02-26T02:50:16;2.03;;;1.80;;
12224;SDS011;6175;50.956;11.064;2023-02-26T02:52:49;2.33;;;1.90;;
12224;SDS011;6175;50.956;11.064;2023-02-26T02:55:23;2.20;;;1.43;;
12224;SDS011;6175;50.956;11.064;2023-02-26T02:57:52;1.63;;;1.50;;
12224;SDS011;6175;50.956;11.064;2023-02-26T03:00:25;2.00;;;1.80;;
12224;SDS011;6175;50.956;11.064;2023-02-26T03:02:56;3.97;;;2.00;;
12224;SDS011;6175;50.956;11.064;2023-02-26T03:05:28;2.57;;;1.60;;
12224;SDS011;6175;50.956;11.064;2023-02-26T03:07:56;2.17;;;1.60;;
12224;SDS011;6175;50.956;11.064;2023-02-26T03:10:26;2.60;;;1.50;;
12224;SDS011;6175;50.956;11.064;2023-02-26T03:12:54;2.60;;;1.67;;
12224;SDS011;6175;50.956;11.064;2023-02-26T03:15:27;2.20;;;1.50;;
12224;SDS011;6175;50.956;11.064;2023-02-26T03:18:02;2.50;;;1.57;;
12224;SDS011;6175;50.956;11.064;2023-02-26T03:20:39;2.63;;;1.47;;
12224;SDS011;6175;50.956;11.064;2023-02-26T03:23:13;2.37;;;1.40;;
12224;SDS011;6175;50.956;11.064;2023-02-26T03:25:47;2.67;;;1.30;;
12224;SDS011;6175;50.956;11.064;2023-02-26T03:28:19;1.93;;;1.50;;
12224;SDS011;6175;50.956;11.064;2023-02-26T03:30:52;3.53;;;1.50;;
12224;SDS011;6175;50.956;11.064;2023-02-26T03:33:24;1.77;;;1.60;;
12224;SDS011;6175;50.956;11.064;2023-02-26T03:35:56;2.07;;;1.60;;
12224;SDS011;6175;50.956;11.064;2023-02-26T03:38:29;1.87;;;1.70;;
12224;SDS011;6175;50.956;11.064;2023-02-26T03:41:02;2.60;;;1.90;;
12224;SDS011;6175;50.956;11.064;2023-02-26T03:43:34;1.97;;;1.77;;
12224;SDS011;6175;50.956;11.064;2023-02-26T03:46:06;1.77;;;1.57;;
12224;SDS011;6175;50.956;11.064;2023-02-26T03:48:38;2.87;;;2.00;;
12224;SDS011;6175;50.956;11.064;2023-02-26T03:51:07;2.33;;;1.70;;
12224;SDS011;6175;50.956;11.064;2023-02-26T03:53:37;3.30;;;1.87;;
12224;SDS011;6175;50.956;11.064;2023-02-26T03:56:10;2.70;;;1.80;;
12224;SDS011;6175;50.956;11.064;2023-02-26T03:58:41;2.93;;;1.90;;
12224;SDS011;6175;50.956;11.064;2023-02-26T04:01:10;2.60;;;2.10;;
12224;SDS011;6175;50.956;11.064;2023-02-26T04:03:44;2.67;;;1.90;;
12224;SDS011;6175;50.956;11.064;2023-02-26T04:06:15;3.73;;;1.70;;
12224;SDS011;6175;50.956;11.064;2023-02-26T04:08:44;1.80;;;1.67;;
12224;SDS011;6175;50.956;11.064;2023-02-26T04:11:12;3.33;;;1.90;;
12224;SDS011;6175;50.956;11.064;2023-02-26T04:13:42;2.60;;;1.60;;
12224;SDS011;6175;50.956;11.064;2023-02-26T04:16:09;1.90;;;1.80;;
12224;SDS011;6175;50.956;11.064;2023-02-26T04:18:36;2.00;;;1.80;;
12224;SDS011;6175;50.956;11.064;2023-02-26T04:21:06;3.63;;;2.00;;
12224;SDS011;6175;50.956;11.064;2023-02-26T04:23:36;2.57;;;2.00;;
12224;SDS011;6175;50.956;11.064;2023-02-26T04:26:03;4.40;;;2.10;;
12224;SDS011;6175;50.956;11.064;2023-02-26T04:28:31;2.30;;;1.90;;
12224;SDS011;6175;50.956;11.064;2023-02-26T04:30:59;3.60;;;1.90;;
12224;SDS011;6175;50.956;11.064;2023-02-26T04:33:26;2.83;;;2.00;;
12224;SDS011;6175;50.956;11.064;2023-02-26T04:35:53;2.60;;;1.93;;
12224;SDS011;6175;50.956;11.064;2023-02-26T04:38:22;3.97;;;1.80;;
12224;SDS011;6175;50.956;11.064;2023-02-26T04:40:49;3.30;;;2.10;;
12224;SDS011;6175;50.956;11.064;2023-02-26T04:43:16;2.77;;;2.10;;
12224;SDS011;6175;50.956;11.064;2023-02-26T04:45:44;2.70;;;2.10;;
12224;SDS011;6175;50.956;11.064;2023-02-26T04:48:11;2.57;;;2.27;;
12224;SDS011;6175;50.956;11.064;2023-02-26T04:50:38;2.40;;;2.20;;
12224;SDS011;6175;50.956;11.064;2023-02-26T04:53:06;3.27;;;2.30;;
12224;SDS011;6175;50.956;11.064;2023-02-26T04:55:35;2.07;;;1.93;;
12224;SDS011;6175;50.956;11.064;2023-02-26T04:58:02;2.50;;;2.00;;
12224;SDS011;6175;50.956;11.064;2023-02-26T05:00:29;4.00;;;2.30;;
12224;SDS011;6175;50.956;11.064;2023-02-26T05:02:56;3.33;;;2.33;;
12224;SDS011;6175;50.956;11.064;2023-02-26T05:05:23;4.43;;;2.50;;
12224;SDS011;6175;50.956;11.064;2023-02-26T05:07:50;2.50;;;2.10;;
12224;SDS011;6175;50.956;11.064;2023-02-26T05:10:20;3.63;;;2.30;;
12224;SDS011;6175;50.956;11.064;2023-02-26T05:12:50;4.17;;;2.87;;
12224;SDS011;6175;50.956;11.064;2023-02-26T05:15:17;4.53;;;2.40;;
12224;SDS011;6175;50.956;11.064;2023-02-26T05:17:44;3.20;;;2.30;;
12224;SDS011;6175;50.956;11.064;2023-02-26T05:20:11;3.37;;;2.30;;
12224;SDS011;6175;50.956;11.064;2023-02-26T05:22:39;3.60;;;2.23;;
12224;SDS011;6175;50.956;11.064;2023-02-26T05:25:07;3.87;;;2.30;;
12224;SDS011;6175;50.956;11.064;2023-02-26T05:27:35;4.03;;;2.37;;
12224;SDS011;6175;50.956;11.064;2023-02-26T05:30:03;2.60;;;2.20;;
12224;SDS011;6175;50.956;11.064;2023-02-26T05:32:31;3.30;;;2.63;;
12224;SDS011;6175;50.956;11.064;2023-02-26T05:34:58;3.60;;;2.33;;
12224;SDS011;6175;50.956;11.064;2023-02-26T05:37:26;3.00;;;2.30;;
12224;SDS011;6175;50.956;11.064;2023-02-26T05:39:53;2.90;;;2.60;;
12224;SDS011;6175;50.956;11.064;2023-02-26T05:42:20;2.37;;;2.10;;
12224;SDS011;6175;50.956;11.064;2023-02-26T05:44:47;2.83;;;2.30;;
12224;SDS011;6175;50.956;11.064;2023-02-26T05:47:16;3.63;;;2.33;;
12224;SDS011;6175;50.956;11.064;2023-02-26T05:49:42;3.07;;;2.77;;
12224;SDS011;6175;50.956;11.064;2023-02-26T05:52:09;3.90;;;2.47;;
12224;SDS011;6175;50.956;11.064;2023-02-26T05:54:37;2.53;;;2.20;;
12224;SDS011;6175;50.956;11.064;2023-02-26T05:57:04;2.73;;;2.50;;
12224;SDS011;6175;50.956;11.064;2023-02-26T05:59:30;6.07;;;2.40;;
12224;SDS011;6175;50.956;11.064;2023-02-26T06:01:57;3.70;;;2.40;;
12224;SDS011;6175;50.956;11.064;2023-02-26T06:04:26;2.30;;;2.10;;
12224;SDS011;6175;50.956;11.064;2023-02-26T06:06:53;2.30;;;2.10;;
12224;SDS011;6175;50.956;11.064;2023-02-26T06:09:20;2.87;;;2.50;;
12224;SDS011;6175;50.956;11.064;2023-02-26T06:11:47;3.30;;;2.47;;
12224;SDS011;6175;50.956;11.064;2023-02-26T06:14:14;3.73;;;2.70;;
12224;SDS011;6175;50.956;11.064;2023-02-26T06:16:41;2.60;;;2.40;;
12224;SDS011;6175;50.956;11.064;2023-02-26T06:19:08;3.10;;;2.53;;
12224;SDS011;6175;50.956;11.064;2023-02-26T06:21:36;2.63;;;2.30;;
12224;SDS011;6175;50.956;11.064;2023-02-26T06:24:03;2.93;;;2.47;;
12224;SDS011;6175;50.956;11.064;2023-02-26T06:26:31;2.50;;;2.00;;
12224;SDS011;6175;50.956;11.064;2023-02-26T06:28:58;3.00;;;2.50;;
12224;SDS011;6175;50.956;11.064;2023-02-26T06:31:26;3.37;;;2.20;;
12224;SDS011;6175;50.956;11.064;2023-02-26T06:33:53;2.70;;;2.13;;
12224;SDS011;6175;50.956;11.064;2023-02-26T06:36:20;3.63;;;2.57;;
12224;SDS011;6175;50.956;11.064;2023-02-26T06:38:48;3.07;;;2.30;;
12224;SDS011;6175;50.956;11.064;2023-02-26T06:41:15;3.90;;;2.10;;
12224;SDS011;6175;50.956;11.064;2023-02-26T06:43:42;2.20;;;2.00;;
12224;SDS011;6175;50.956;11.064;2023-02-26T06:46:09;2.27;;;1.97;;
12224;SDS011;6175;50.956;11.064;2023-02-26T06:48:36;2.20;;;1.90;;
12224;SDS011;6175;50.956;11.064;2023-02-26T06:51:04;3.20;;;2.10;;
12224;SDS011;6175;50.956;11.064;2023-02-26T06:53:31;2.33;;;1.70;;
12224;SDS011;6175;50.956;11.064;2023-02-26T06:56:00;3.33;;;2.00;;
12224;SDS011;6175;50.956;11.064;2023-02-26T06:58:27;2.97;;;1.80;;
12224;SDS011;6175;50.956;11.064;2023-02-26T07:00:54;1.80;;;1.70;;
12224;SDS011;6175;50.956;11.064;2023-02-26T07:03:21;3.03;;;2.70;;
12224;SDS011;6175;50.956;11.064;2023-02-26T07:05:48;2.00;;;1.77;;
12224;SDS011;6175;50.956;11.064;2023-02-26T07:08:15;2.40;;;1.80;;
12224;SDS011;6175;50.956;11.064;2023-02-26T07:10:43;3.40;;;1.90;;
12224;SDS011;6175;50.956;11.064;2023-02-26T07:13:14;2.23;;;2.03;;
12224;SDS011;6175;50.956;11.064;2023-02-26T07:15:41;4.57;;;3.03;;
12224;SDS011;6175;50.956;11.064;2023-02-26T07:18:08;3.53;;;2.73;;
12224;SDS011;6175;50.956;11.064;2023-02-26T07:20:35;6.87;;;3.77;;
12224;SDS011;6175;50.956;11.064;2023-02-26T07:23:02;7.00;;;4.53;;
12224;SDS011;6175;50.956;11.064;2023-02-26T07:25:29;4.90;;;3.30;;
12224;SDS011;6175;50.956;11.064;2023-02-26T07:27:56;3.67;;;3.10;;
12224;SDS011;6175;50.956;11.064;2023-02-26T07:30:25;3.20;;;2.67;;
12224;SDS011;6175;50.956;11.064;2023-02-26T07:32:52;3.17;;;2.83;;
12224;SDS011;6175;50.956;11.064;2023-02-26T07:35:19;3.27;;;3.07;;
12224;SDS011;6175;50.956;11.064;2023-02-26T07:37:46;4.67;;;3.53;;
12224;SDS011;6175;50.956;11.064;2023-02-26T07:40:13;3.20;;;2.80;;
12224;SDS011;6175;50.956;11.064;2023-02-26T07:42:41;3.37;;;2.40;;
12224;SDS011;6175;50.956;11.064;2023-02-26T07:45:08;3.37;;;2.80;;
12224;SDS011;6175;50.956;11.064;2023-02-26T07:47:37;2.50;;;2.30;;
12224;SDS011;6175;50.956;11.064;2023-02-26T07:50:04;2.70;;;2.50;;
12224;SDS011;6175;50.956;11.064;2023-02-26T07:52:31;5.07;;;2.70;;
12224;SDS011;6175;50.956;11.064;2023-02-26T07:54:59;3.60;;;2.10;;
12224;SDS011;6175;50.956;11.064;2023-02-26T07:57:26;2.53;;;2.30;;
12224;SDS011;6175;50.956;11.064;2023-02-26T07:59:53;2.30;;;2.10;;
12224;SDS011;6175;50.956;11.064;2023-02-26T08:02:20;3.57;;;2.10;;
12224;SDS011;6175;50.956;11.064;2023-02-26T08:04:51;2.67;;;1.93;;
12224;SDS011;6175;50.956;11.064;2023-02-26T08:07:17;2.33;;;1.90;;
12224;SDS011;6175;50.956;11.064;2023-02-26T08:09:44;4.43;;;2.13;;
12224;SDS011;6175;50.956;11.064;2023-02-26T08:12:12;3.40;;;2.10;;
12224;SDS011;6175;50.956;11.064;2023-02-26T08:14:39;3.30;;;2.17;;
12224;SDS011;6175;50.956;11.064;2023-02-26T08:17:06;2.90;;;2.10;;
12224;SDS011;6175;50.956;11.064;2023-02-26T08:19:33;4.40;;;1.83;;
12224;SDS011;6175;50.956;11.064;2023-02-26T08:22:01;3.07;;;1.97;;
12224;SDS011;6175;50.956;11.064;2023-02-26T08:24:29;2.33;;;1.90;;
12224;SDS011;6175;50.956;11.064;2023-02-26T08:26:56;2.63;;;2.00;;
12224;SDS011;6175;50.956;11.064;2023-02-26T08:29:23;2.43;;;1.80;;
12224;SDS011;6175;50.956;11.064;2023-02-26T08:31:50;2.63;;;1.80;;
12224;SDS011;6175;50.956;11.064;2023-02-26T08:34:17;3.20;;;2.00;;
12224;SDS011;6175;50.956;11.064;2023-02-26T08:36:44;1.93;;;1.70;;
12224;SDS011;6175;50.956;11.064;2023-02-26T08:39:13;2.67;;;1.60;;
12224;SDS011;6175;50.956;11.064;2023-02-26T08:41:39;1.53;;;1.43;;
12224;SDS011;6175;50.956;11.064;2023-02-26T08:44:07;1.73;;;1.63;;
12224;SDS011;6175;50.956;11.064;2023-02-26T08:46:34;1.50;;;1.40;;
12224;SDS011;6175;50.956;11.064;2023-02-26T08:49:01;3.30;;;1.73;;
12224;SDS011;6175;50.956;11.064;2023-02-26T08:51:28;1.50;;;1.40;;
12224;SDS011;6175;50.956;11.064;2023-02-26T08:53:55;2.47;;;1.63;;
12224;SDS011;6175;50.956;11.064;2023-02-26T08:56:24;2.93;;;1.80;;
12224;SDS011;6175;50.956;11.064;2023-02-26T08:58:51;3.00;;;1.80;;
12224;SDS011;6175;50.956;11.064;2023-02-26T09:01:18;2.30;;;1.70;;
12224;SDS011;6175;50.956;11.064;2023-02-26T09:03:45;4.10;;;1.77;;
12224;SDS011;6175;50.956;11.064;2023-02-26T09:06:12;3.53;;;1.77;;
12224;SDS011;6175;50.956;11.064;2023-02-26T09:08:40;2.20;;;1.53;;
12224;SDS011;6175;50.956;11.064;2023-02-26T09:11:07;2.00;;;1.60;;
12224;SDS011;6175;50.956;11.064;2023-02-26T09:13:35;1.73;;;1.37;;
12224;SDS011;6175;50.956;11.064;2023-02-26T09:16:03;1.48;;;1.38;;
12224;SDS011;6175;50.956;11.064;2023-02-26T09:18:30;2.93;;;1.60;;
12224;SDS011;6175;50.956;11.064;2023-02-26T09:20:57;1.95;;;1.67;;
12224;SDS011;6175;50.956;11.064;2023-02-26T09:23:24;3.77;;;1.47;;
12224;SDS011;6175;50.956;11.064;2023-02-26T09:25:52;2.73;;;1.40;;
12224;SDS011;6175;50.956;11.064;2023-02-26T09:28:19;3.08;;;1.42;;
12224;SDS011;6175;50.956;11.064;2023-02-26T09:30:49;2.93;;;1.80;;
12224;SDS011;6175;50.956;11.064;2023-02-26T09:33:17;1.50;;;1.40;;
12224;SDS011;6175;50.956;11.064;2023-02-26T09:35:46;2.30;;;1.30;;
12224;SDS011;6175;50.956;11.064;2023-02-26T09:38:13;3.03;;;1.52;;
12224;SDS011;6175;50.956;11.064;2023-02-26T09:40:41;1.45;;;1.30;;
12224;SDS011;6175;50.956;11.064;2023-02-26T09:43:17;1.33;;;1.23;;
12224;SDS011;6175;50.956;11.064;2023-02-26T09:46:00;1.55;;;1.40;;
12224;SDS011;6175;50.956;11.064;2023-02-26T09:48:31;2.10;;;1.48;;
12224;SDS011;6175;50.956;11.064;2023-02-26T09:51:00;1.75;;;1.60;;
12224;SDS011;6175;50.956;11.064;2023-02-26T09:53:27;2.22;;;1.50;;
12224;SDS011;6175;50.956;11.064;2023-02-26T09:56:03;2.63;;;1.48;;
12224;SDS011;6175;50.956;11.064;2023-02-26T09:58:33;1.58;;;1.48;;
12224;SDS011;6175;50.956;11.064;2023-02-26T10:01:05;1.58;;;1.48;;
12224;SDS011;6175;50.956;11.064;2023-02-26T10:03:43;3.72;;;2.08;;
12224;SDS011;6175;50.956;11.064;2023-02-26T10:06:23;1.42;;;1.33;;
12224;SDS011;6175;50.956;11.064;2023-02-26T10:09:02;3.30;;;1.80;;
12224;SDS011;6175;50.956;11.064;2023-02-26T10:11:43;2.25;;;1.95;;
12224;SDS011;6175;50.956;11.064;2023-02-26T10:14:17;3.38;;;2.38;;
12224;SDS011;6175;50.956;11.064;2023-02-26T10:16:51;2.67;;;2.10;;
12224;SDS011;6175;50.956;11.064;2023-02-26T10:19:22;3.08;;;1.65;;
12224;SDS011;6175;50.956;11.064;2023-02-26T10:21:54;3.35;;;2.03;;
12224;SDS011;6175;50.956;11.064;2023-02-26T10:24:26;3.35;;;2.03;;
12224;SDS011;6175;50.956;11.064;2023-02-26T10:26:59;2.60;;;1.65;;
12224;SDS011;6175;50.956;11.064;2023-02-26T10:29:31;3.13;;;1.75;;
12224;SDS011;6175;50.956;11.064;2023-02-26T10:32:05;1.67;;;1.55;;
12224;SDS011;6175;50.956;11.064;2023-02-26T10:34:46;2.90;;;1.80;;
12224;SDS011;6175;50.956;11.064;2023-02-26T10:37:17;2.05;;;1.85;;
12224;SDS011;6175;50.956;11.064;2023-02-26T10:39:46;2.50;;;1.52;;
12224;SDS011;6175;50.956;11.064;2023-02-26T10:42:17;1.60;;;1.50;;
12224;SDS011;6175;50.956;11.064;2023-02-26T10:44:50;3.38;;;2.13;;
12224;SDS011;6175;50.956;11.064;2023-02-26T10:47:34;2.45;;;1.48;;
12224;SDS011;6175;50.956;11.064;2023-02-26T10:50:09;2.40;;;1.40;;
12224;SDS011;6175;50.956;11.064;2023-02-26T10:52:38;3.90;;;1.45;;
12224;SDS011;6175;50.956;11.064;2023-02-26T10:55:17;2.03;;;1.30;;
12224;SDS011;6175;50.956;11.064;2023-02-26T10:57:59;2.10;;;1.60;;
12224;SDS011;6175;50.956;11.064;2023-02-26T11:00:30;2.42;;;1.38;;
12224;SDS011;6175;50.956;11.064;2023-02-26T11:03:00;2.25;;;1.40;;
12224;SDS011;6175;50.956;11.064;2023-02-26T11:05:30;1.50;;;1.35;;
12224;SDS011;6175;50.956;11.064;2023-02-26T11:08:00;3.85;;;1.50;;
12224;SDS011;6175;50.956;11.064;2023-02-26T11:10:33;3.60;;;1.48;;
12224;SDS011;6175;50.956;11.064;2023-02-26T11:13:05;1.40;;;1.30;;
12224;SDS011;6175;50.956;11.064;2023-02-26T11:15:33;1.48;;;1.38;;
12224;SDS011;6175;50.956;11.064;2023-02-26T11:18:01;2.08;;;1.70;;
12224;SDS011;6175;50.956;11.064;2023-02-26T11:20:30;2.85;;;1.40;;
12224;SDS011;6175;50.956;11.064;2023-02-26T11:23:02;1.45;;;1.35;;
12224;SDS011;6175;50.956;11.064;2023-02-26T11:25:32;1.90;;;1.48;;
12224;SDS011;6175;50.956;11.064;2023-02-26T11:28:02;1.98;;;1.17;;
12224;SDS011;6175;50.956;11.064;2023-02-26T11:30:31;1.85;;;1.40;;
12224;SDS011;6175;50.956;11.064;2023-02-26T11:33:06;2.47;;;1.15;;
12224;SDS011;6175;50.956;11.064;2023-02-26T11:35:41;1.50;;;1.38;;
12224;SDS011;6175;50.956;11.064;2023-02-26T11:38:09;1.42;;;1.33;;
12224;SDS011;6175;50.956;11.064;2023-02-26T11:40:44;1.30;;;1.20;;
12224;SDS011;6175;50.956;11.064;2023-02-26T11:43:13;1.60;;;1.50;;
12224;SDS011;6175;50.956;11.064;2023-02-26T11:45:43;1.88;;;1.40;;
12224;SDS011;6175;50.956;11.064;2023-02-26T11:48:18;1.33;;;1.23;;
12224;SDS011;6175;50.956;11.064;2023-02-26T11:50:50;2.72;;;1.60;;
12224;SDS011;6175;50.956;11.064;2023-02-26T11:53:23;2.67;;;1.50;;
12224;SDS011;6175;50.956;11.064;2023-02-26T11:55:52;1.42;;;1.33;;
12224;SDS011;6175;50.956;11.064;2023-02-26T11:58:25;2.47;;;1.95;;
12224;SDS011;6175;50.956;11.064;2023-02-26T12:00:56;2.22;;;2.03;;
12224;SDS011;6175;50.956;11.064;2023-02-26T12:03:27;2.00;;;1.80;;
12224;SDS011;6175;50.956;11.064;2023-02-26T12:05:57;2.38;;;1.98;;
12224;SDS011;6175;50.956;11.064;2023-02-26T12:08:27;3.22;;;2.10;;
12224;SDS011;6175;50.956;11.064;2023-02-26T12:14:07;3.10;;;2.00;;
12224;SDS011;6175;50.956;11.064;2023-02-26T12:16:45;2.22;;;1.40;;
12224;SDS011;6175;50.956;11.064;2023-02-26T12:19:26;1.85;;;1.65;;
12224;SDS011;6175;50.956;11.064;2023-02-26T12:22:05;1.60;;;1.50;;
12224;SDS011;6175;50.956;11.064;2023-02-26T12:27:35;1.63;;;1.45;;
12224;SDS011;6175;50.956;11.064;2023-02-26T12:30:27;1.58;;;1.40;;
12224;SDS011;6175;50.956;11.064;2023-02-26T12:33:09;1.60;;;1.50;;
12224;SDS011;6175;50.956;11.064;2023-02-26T12:35:46;1.70;;;1.52;;
12224;SDS011;6175;50.956;11.064;2023-02-26T12:38:20;1.38;;;1.27;;
12224;SDS011;6175;50.956;11.064;2023-02-26T12:43:55;1.17;;;1.17;;
12224;SDS011;6175;50.956;11.064;2023-02-26T12:46:33;1.10;;;1.00;;
12224;SDS011;6175;50.956;11.064;2023-02-26T12:49:30;1.30;;;1.23;;
12224;SDS011;6175;50.956;11.064;2023-02-26T12:55:11;2.92;;;2.00;;
12224;SDS011;6175;50.956;11.064;2023-02-26T13:09:40;1.30;;;1.10;;
12224;SDS011;6175;50.956;11.064;2023-02-26T13:12:21;1.83;;;1.38;;
12224;SDS011;6175;50.956;11.064;2023-02-26T13:15:01;4.93;;;2.45;;
12224;SDS011;6175;50.956;11.064;2023-02-26T13:17:42;2.83;;;1.90;;
12224;SDS011;6175;50.956;11.064;2023-02-26T13:20:17;3.20;;;1.55;;
12224;SDS011;6175;50.956;11.064;2023-02-26T13:22:49;3.28;;;1.90;;
12224;SDS011;6175;50.956;11.064;2023-02-26T13:25:32;1.50;;;1.25;;
12224;SDS011;6175;50.956;11.064;2023-02-26T13:28:10;1.77;;;1.45;;
12224;SDS011;6175;50.956;11.064;2023-02-26T13:30:48;3.80;;;2.08;;
12224;SDS011;6175;50.956;11.064;2023-02-26T13:33:19;1.80;;;1.58;;
12224;SDS011;6175;50.956;11.064;2023-02-26T13:35:48;2.10;;;1.37;;
12224;SDS011;6175;50.956;11.064;2023-02-26T13:38:18;2.67;;;1.50;;
12224;SDS011;6175;50.956;11.064;2023-02-26T13:40:53;1.13;;;1.02;;
12224;SDS011;6175;50.956;11.064;2023-02-26T13:43:32;1.08;;;1.08;;
12224;SDS011;6175;50.956;11.064;2023-02-26T13:46:16;1.48;;;1.17;;
12224;SDS011;6175;50.956;11.064;2023-02-26T13:48:50;1.20;;;1.10;;
12224;SDS011;6175;50.956;11.064;2023-02-26T13:51:26;1.10;;;1.10;;
12224;SDS011;6175;50.956;11.064;2023-02-26T13:53:57;1.63;;;1.38;;
12224;SDS011;6175;50.956;11.064;2023-02-26T13:56:46;1.30;;;1.20;;
12224;SDS011;6175;50.956;11.064;2023-02-26T13:59:25;1.50;;;1.40;;
12224;SDS011;6175;50.956;11.064;2023-02-26T14:02:00;1.58;;;1.23;;
12224;SDS011;6175;50.956;11.064;2023-02-26T14:04:29;1.40;;;1.27;;
12224;SDS011;6175;50.956;11.064;2023-02-26T14:06:57;1.20;;;1.08;;
12224;SDS011;6175;50.956;11.064;2023-02-26T14:09:35;2.78;;;1.20;;
12224;SDS011;6175;50.956;11.064;2023-02-26T14:12:24;1.02;;;1.02;;
12224;SDS011;6175;50.956;11.064;2023-02-26T14:15:17;0.90;;;0.90;;
12224;SDS011;6175;50.956;11.064;2023-02-26T14:18:00;1.00;;;1.00;;
12224;SDS011;6175;50.956;11.064;2023-02-26T14:20:29;1.30;;;1.20;;
12224;SDS011;6175;50.956;11.064;2023-02-26T14:23:11;1.25;;;1.20;;
12224;SDS011;6175;50.956;11.064;2023-02-26T14:25:47;1.55;;;1.27;;
12224;SDS011;6175;50.956;11.064;2023-02-26T14:28:19;1.35;;;1.15;;
12224;SDS011;6175;50.956;11.064;2023-02-26T14:31:05;1.10;;;1.00;;
12224;SDS011;6175;50.956;11.064;2023-02-26T14:33:39;2.08;;;1.20;;
12224;SDS011;6175;50.956;11.064;2023-02-26T14:36:10;1.35;;;1.20;;
12224;SDS011;6175;50.956;11.064;2023-02-26T14:38:42;2.05;;;0.90;;
12224;SDS011;6175;50.956;11.064;2023-02-26T14:41:12;2.28;;;1.10;;
12224;SDS011;6175;50.956;11.064;2023-02-26T14:43:48;0.90;;;0.90;;
12224;SDS011;6175;50.956;11.064;2023-02-26T14:46:20;1.95;;;1.27;;
12224;SDS011;6175;50.956;11.064;2023-02-26T14:48:47;1.50;;;1.08;;
12224;SDS011;6175;50.956;11.064;2023-02-26T14:51:17;3.05;;;1.60;;
12224;SDS011;6175;50.956;11.064;2023-02-26T14:56:49;1.55;;;1.40;;
12224;SDS011;6175;50.956;11.064;2023-02-26T14:59:39;2.38;;;1.45;;
12224;SDS011;6175;50.956;11.064;2023-02-26T15:02:21;1.73;;;1.30;;
12224;SDS011;6175;50.956;11.064;2023-02-26T15:07:56;1.42;;;1.33;;
12224;SDS011;6175;50.956;11.064;2023-02-26T15:10:35;1.67;;;1.30;;
12224;SDS011;6175;50.956;11.064;2023-02-26T15:13:17;1.58;;;1.20;;
12224;SDS011;6175;50.956;11.064;2023-02-26T15:15:59;1.63;;;1.10;;
12224;SDS011;6175;50.956;11.064;2023-02-26T15:18:46;1.60;;;1.50;;
12224;SDS011;6175;50.956;11.064;2023-02-26T15:21:22;3.10;;;1.50;;
12224;SDS011;6175;50.956;11.064;2023-02-26T15:23:54;1.15;;;1.05;;
12224;SDS011;6175;50.956;11.064;2023-02-26T15:26:24;1.83;;;1.42;;
12224;SDS011;6175;50.956;11.064;2023-02-26T15:28:54;2.63;;;1.45;;
12224;SDS011;6175;50.956;11.064;2023-02-26T15:31:29;1.38;;;1.27;;
12224;SDS011;6175;50.956;11.064;2023-02-26T15:33:59;2.90;;;1.30;;
12224;SDS011;6175;50.956;11.064;2023-02-26T15:36:27;1.30;;;1.25;;
12224;SDS011;6175;50.956;11.064;2023-02-26T15:38:56;1.30;;;1.15;;
12224;SDS011;6175;50.956;11.064;2023-02-26T15:41:25;1.35;;;1.25;;
12224;SDS011;6175;50.956;11.064;2023-02-26T15:43:54;1.38;;;1.08;;